createdAt,value
2018-12-29T00:04:16.560Z,18.57
2018-12-29T00:06:57.935Z,18.27
2018-12-29T00:09:39.018Z,15.45
2018-12-29T00:12:20.167Z,15.40
2018-12-29T00:15:01.788Z,15.45
2018-12-29T00:17:42.942Z,15.78
2018-12-29T00:20:23.351Z,17.50
2018-12-29T00:23:04.700Z,18.17
2018-12-29T00:25:46.139Z,15.88
2018-12-29T00:28:27.560Z,16.02
2018-12-29T00:31:09.373Z,15.08
2018-12-29T00:33:50.604Z,15.35
2018-12-29T00:36:31.827Z,15.88
2018-12-29T00:39:13.394Z,15.35
2018-12-29T00:41:55.157Z,15.72
2018-12-29T00:44:36.237Z,15.30
2018-12-29T00:47:17.599Z,15.32
2018-12-29T00:49:58.744Z,16.90
2018-12-29T00:52:39.730Z,16.37
2018-12-29T00:55:21.576Z,16.57
2018-12-29T00:58:03.568Z,14.93
2018-12-29T01:00:45.033Z,16.70
2018-12-29T01:03:25.736Z,16.73
2018-12-29T01:08:53.158Z,16.35
2018-12-29T01:11:34.682Z,16.75
2018-12-29T01:14:15.427Z,18.50
2018-12-29T01:16:56.123Z,15.30
2018-12-29T01:19:37.287Z,16.82
2018-12-29T01:22:18.510Z,18.30
2018-12-29T01:24:59.740Z,20.10
2018-12-29T01:30:23.328Z,16.25
2018-12-29T01:33:04.747Z,18.20
2018-12-29T01:35:45.688Z,17.17
2018-12-29T01:38:27.420Z,16.93
2018-12-29T01:41:08.491Z,17.55
2018-12-29T01:43:49.747Z,16.00
2018-12-29T01:46:30.889Z,16.50
2018-12-29T01:49:12.081Z,16.45
2018-12-29T01:51:53.495Z,16.73
2018-12-29T01:54:35.205Z,17.00
2018-12-29T01:57:16.199Z,17.17
2018-12-29T01:59:57.892Z,17.60
2018-12-29T02:02:39.290Z,17.45
2018-12-29T02:05:20.825Z,16.97
2018-12-29T02:08:02.061Z,16.45
2018-12-29T02:10:43.295Z,17.10
2018-12-29T02:13:24.121Z,16.50
2018-12-29T02:16:04.905Z,17.80
2018-12-29T02:18:45.971Z,16.07
2018-12-29T02:21:27.326Z,17.02
2018-12-29T02:24:09.005Z,16.23
2018-12-29T02:26:50.301Z,16.30
2018-12-29T02:29:31.720Z,17.67
2018-12-29T02:32:12.280Z,16.57
2018-12-29T02:34:53.201Z,18.12
2018-12-29T02:37:34.641Z,17.75
2018-12-29T02:40:15.816Z,15.50
2018-12-29T02:42:56.832Z,16.52
2018-12-29T02:45:38.094Z,16.87
2018-12-29T02:48:19.351Z,15.30
2018-12-29T02:51:00.435Z,15.30
2018-12-29T02:56:25.463Z,16.07
2018-12-29T02:59:06.523Z,17.05
2018-12-29T03:01:47.644Z,16.05
2018-12-29T03:04:29.452Z,16.90
2018-12-29T03:07:11.153Z,17.07
2018-12-29T03:09:52.742Z,17.20
2018-12-29T03:12:33.769Z,16.80
2018-12-29T03:15:14.509Z,17.45
2018-12-29T03:17:55.392Z,18.50
2018-12-29T03:20:36.778Z,17.37
2018-12-29T03:23:17.933Z,17.70
2018-12-29T03:28:41.720Z,16.30
2018-12-29T03:31:23.235Z,17.23
2018-12-29T03:33:53.038Z,16.87
2018-12-29T03:36:22.739Z,16.70
2018-12-29T03:39:11.531Z,15.75
2018-12-29T03:42:00.567Z,16.50
2018-12-29T03:44:49.340Z,16.85
2018-12-29T03:47:37.847Z,16.65
2018-12-29T03:50:26.636Z,17.10
2018-12-29T03:53:15.399Z,16.93
2018-12-29T03:56:04.228Z,16.25
2018-12-29T03:58:53.259Z,17.48
2018-12-29T04:01:42.545Z,17.48
2018-12-29T04:04:23.841Z,18.10
2018-12-29T04:07:04.794Z,17.80
2018-12-29T04:21:23.176Z,16.90
2018-12-29T04:24:04.612Z,16.73
2018-12-29T04:26:45.646Z,17.85
2018-12-29T04:29:27.540Z,16.37
2018-12-29T04:32:08.798Z,16.27
2018-12-29T04:34:50.668Z,16.42
2018-12-29T04:37:32.396Z,16.20
2018-12-29T04:40:13.421Z,15.63
2018-12-29T04:42:43.387Z,16.85
2018-12-29T04:48:34.121Z,15.28
2018-12-29T04:51:23.180Z,16.30
2018-12-29T04:54:12.024Z,17.45
2018-12-29T04:57:01.191Z,17.07
2018-12-29T04:59:49.985Z,16.65
2018-12-29T05:02:38.313Z,16.97
2018-12-29T05:05:26.519Z,17.10
2018-12-29T05:08:15.664Z,17.30
2018-12-29T05:10:45.895Z,16.95
2018-12-29T05:13:34.935Z,16.55
2018-12-29T05:16:24.229Z,16.60
2018-12-29T05:22:04.642Z,18.85
2018-12-29T05:30:23.933Z,19.27
2018-12-29T05:33:04.820Z,19.48
2018-12-29T05:35:46.444Z,19.10
2018-12-29T05:38:27.657Z,17.70
2018-12-29T05:47:19.572Z,18.32
2018-12-29T05:50:00.330Z,18.15
2018-12-29T05:52:42.757Z,17.30
2018-12-29T05:55:23.972Z,18.12
2018-12-29T05:58:05.101Z,19.25
2018-12-29T06:00:46.777Z,18.48
2018-12-29T06:03:28.487Z,17.65
2018-12-29T06:06:09.547Z,16.95
2018-12-29T06:08:50.745Z,17.32
2018-12-29T06:11:32.199Z,18.57
2018-12-29T06:14:13.933Z,17.25
2018-12-29T06:16:55.098Z,19.25
2018-12-29T06:19:36.612Z,18.95
2018-12-29T06:22:18.178Z,17.52
2018-12-29T06:24:59.182Z,17.95
2018-12-29T06:27:40.959Z,18.23
2018-12-29T06:30:21.612Z,18.90
2018-12-29T06:33:02.952Z,19.30
2018-12-29T06:35:44.090Z,20.70
2018-12-29T06:38:24.814Z,20.68
2018-12-29T06:41:06.432Z,18.70
2018-12-29T06:43:47.559Z,17.75
2018-12-29T06:46:17.891Z,18.95
2018-12-29T06:49:25.642Z,18.65
2018-12-29T06:52:14.543Z,17.50
2018-12-29T06:55:03.333Z,20.62
2018-12-29T06:57:52.382Z,21.00
2018-12-29T07:00:40.827Z,20.17
2018-12-29T07:03:29.684Z,20.37
2018-12-29T07:06:18.203Z,21.27
2018-12-29T07:09:07.118Z,20.23
2018-12-29T07:11:56.300Z,20.35
2018-12-29T07:14:37.315Z,20.97
2018-12-29T07:17:18.297Z,20.72
2018-12-29T07:19:59.812Z,21.70
2018-12-29T07:22:41.078Z,20.88
2018-12-29T07:25:22.975Z,20.97
2018-12-29T07:28:04.619Z,20.62
2018-12-29T07:30:45.824Z,21.42
2018-12-29T07:33:27.248Z,21.37
2018-12-29T07:36:08.342Z,21.70
2018-12-29T07:38:49.580Z,22.27
2018-12-29T07:41:31.079Z,22.40
2018-12-29T07:44:12.062Z,20.92
2018-12-29T07:46:53.409Z,22.95
2018-12-29T07:49:34.602Z,21.27
2018-12-29T07:52:15.685Z,21.82
2018-12-29T07:54:56.355Z,21.10
2018-12-29T07:57:37.799Z,20.65
2018-12-29T08:00:19.083Z,20.55
2018-12-29T08:03:00.914Z,22.13
2018-12-29T08:08:40.811Z,20.75
2018-12-29T08:11:22.136Z,22.32
2018-12-29T08:14:03.151Z,21.02
2018-12-29T08:16:45.124Z,21.55
2018-12-29T08:19:26.363Z,21.60
2018-12-29T08:22:07.792Z,20.02
2018-12-29T08:24:49.470Z,20.72
2018-12-29T08:27:30.456Z,20.80
2018-12-29T08:30:12.341Z,20.12
2018-12-29T08:32:53.465Z,20.55
2018-12-29T08:35:34.707Z,19.17
2018-12-29T08:38:15.742Z,19.32
2018-12-29T08:40:57.758Z,18.87
2018-12-29T08:43:38.555Z,18.80
2018-12-29T08:46:20.050Z,18.17
2018-12-29T08:49:00.941Z,20.68
2018-12-29T08:51:41.904Z,20.08
2018-12-29T08:54:23.359Z,20.10
2018-12-29T08:57:04.739Z,19.55
2018-12-29T08:59:46.028Z,18.98
2018-12-29T09:02:27.698Z,19.50
2018-12-29T09:05:09.095Z,19.17
2018-12-29T09:07:50.014Z,19.45
2018-12-29T09:10:31.419Z,18.65
2018-12-29T09:13:12.822Z,19.45
2018-12-29T09:15:53.883Z,21.45
2018-12-29T09:18:34.586Z,20.48
2018-12-29T09:21:15.807Z,20.75
2018-12-29T09:23:57.464Z,20.80
2018-12-29T09:26:38.800Z,23.22
2018-12-29T09:29:20.900Z,22.05
2018-12-29T09:32:02.404Z,21.20
2018-12-29T09:34:43.937Z,21.93
2018-12-29T09:37:25.371Z,22.48
2018-12-29T09:40:06.679Z,24.27
2018-12-29T09:42:48.339Z,23.90
2018-12-29T09:45:30.061Z,23.90
2018-12-29T09:48:10.936Z,23.77
2018-12-29T09:50:51.860Z,24.98
2018-12-29T09:53:32.571Z,26.10
2018-12-29T09:56:13.683Z,26.65
2018-12-29T09:58:54.639Z,24.70
2018-12-29T10:01:36.200Z,22.80
2018-12-29T10:04:17.375Z,21.45
2018-12-29T10:06:58.740Z,22.13
2018-12-29T10:09:40.753Z,21.75
2018-12-29T10:12:22.744Z,19.55
2018-12-29T10:15:04.025Z,23.25
2018-12-29T10:17:45.404Z,21.00
2018-12-29T10:20:25.359Z,20.30
2018-12-29T10:23:13.696Z,20.70
2018-12-29T10:26:02.137Z,20.10
2018-12-29T10:28:50.878Z,19.40
2018-12-29T10:31:39.611Z,19.45
2018-12-29T10:34:28.814Z,19.05
2018-12-29T10:37:17.958Z,20.30
2018-12-29T10:39:58.979Z,19.02
2018-12-29T10:42:39.784Z,18.90
2018-12-29T10:45:20.459Z,20.12
2018-12-29T10:48:02.184Z,20.10
2018-12-29T10:50:43.585Z,20.88
2018-12-29T10:53:25.147Z,19.48
2018-12-29T10:56:06.976Z,18.90
2018-12-29T10:58:48.612Z,22.10
2018-12-29T11:01:30.341Z,19.82
2018-12-29T11:04:11.767Z,20.85
2018-12-29T11:06:53.315Z,21.27
2018-12-29T11:09:34.649Z,20.12
2018-12-29T11:12:15.859Z,20.37
2018-12-29T11:14:56.980Z,21.42
2018-12-29T11:17:42.119Z,22.58
2018-12-29T11:20:21.421Z,21.05
2018-12-29T11:23:03.247Z,20.30
2018-12-29T11:25:44.252Z,21.77
2018-12-29T11:28:25.959Z,21.12
2018-12-29T11:31:07.015Z,22.40
2018-12-29T11:33:48.308Z,21.25
2018-12-29T11:36:31.862Z,22.32
2018-12-29T11:39:13.231Z,22.30
2018-12-29T11:41:54.296Z,21.73
2018-12-29T11:44:36.182Z,20.88
2018-12-29T11:47:17.775Z,20.40
2018-12-29T11:49:58.847Z,21.35
2018-12-29T11:52:40.132Z,21.57
2018-12-29T11:55:21.931Z,21.30
2018-12-29T11:58:03.288Z,23.47
2018-12-29T12:00:44.904Z,22.37
2018-12-29T12:03:26.653Z,23.52
2018-12-29T12:06:07.894Z,21.55
2018-12-29T12:08:48.708Z,22.32
2018-12-29T12:11:29.436Z,22.37
2018-12-29T12:14:11.115Z,23.98
2018-12-29T12:16:52.368Z,22.15
2018-12-29T12:19:34.115Z,22.85
2018-12-29T12:22:15.827Z,23.83
2018-12-29T12:24:57.716Z,23.47
2018-12-29T12:27:38.523Z,24.05
2018-12-29T12:30:20.557Z,24.43
2018-12-29T12:33:02.257Z,22.58
2018-12-29T12:35:43.929Z,23.83
2018-12-29T12:38:25.539Z,26.00
2018-12-29T12:41:06.944Z,24.92
2018-12-29T12:43:48.185Z,26.48
2018-12-29T12:46:30.195Z,26.65
2018-12-29T12:49:11.519Z,24.85
2018-12-29T12:51:52.692Z,26.85
2018-12-29T12:54:34.386Z,26.87
2018-12-29T12:57:15.964Z,26.80
2018-12-29T12:59:58.358Z,27.30
2018-12-29T13:02:39.468Z,29.23
2018-12-29T13:05:20.736Z,26.87
2018-12-29T13:08:01.903Z,27.58
2018-12-29T13:10:32.393Z,37.10
2018-12-29T13:13:21.527Z,33.18
2018-12-29T13:16:10.480Z,44.35
2018-12-29T13:18:59.557Z,47.15
2018-12-29T13:21:48.855Z,80.22
2018-12-29T13:24:37.279Z,31.70
2018-12-29T13:27:26.198Z,30.08
2018-12-29T13:30:15.401Z,36.00
2018-12-29T13:33:04.216Z,29.57
2018-12-29T13:35:53.032Z,43.02
2018-12-29T13:38:42.176Z,36.77
2018-12-29T13:41:31.607Z,30.57
2018-12-29T13:44:20.407Z,39.08
2018-12-29T13:47:09.356Z,33.83
2018-12-29T13:49:58.822Z,37.45
2018-12-29T13:52:48.597Z,45.92
2018-12-29T13:55:59.873Z,32.17
2018-12-29T13:58:48.227Z,34.43
2018-12-29T14:01:36.756Z,31.27
2018-12-29T14:04:07.389Z,31.55
2018-12-29T14:06:37.258Z,29.87
2018-12-29T14:09:26.319Z,31.93
2018-12-29T14:12:15.419Z,27.52
2018-12-29T14:15:04.475Z,32.05
2018-12-29T14:17:53.689Z,29.32
2018-12-29T14:20:42.868Z,29.20
2018-12-29T14:23:31.426Z,25.65
2018-12-29T14:26:20.192Z,28.85
2018-12-29T14:29:08.636Z,28.27
2018-12-29T14:31:57.438Z,28.25
2018-12-29T14:34:46.304Z,27.77
2018-12-29T14:37:35.078Z,28.02
2018-12-29T14:40:16.307Z,26.65
2018-12-29T14:42:57.576Z,26.40
2018-12-29T14:45:38.903Z,27.27
2018-12-29T14:48:20.408Z,25.25
2018-12-29T14:51:02.118Z,27.80
2018-12-29T14:53:43.234Z,27.58
2018-12-29T14:59:07.775Z,28.85
2018-12-29T15:01:49.163Z,24.43
2018-12-29T15:04:31.435Z,27.13
2018-12-29T15:07:13.495Z,25.92
2018-12-29T15:09:54.808Z,26.95
2018-12-29T15:12:36.288Z,27.75
2018-12-29T15:15:18.100Z,28.67
2018-12-29T15:17:59.751Z,32.60
2018-12-29T15:20:41.076Z,28.45
2018-12-29T15:23:21.784Z,27.60
2018-12-29T15:26:03.298Z,28.57
2018-12-29T15:28:44.884Z,27.82
2018-12-29T15:31:26.761Z,28.70
2018-12-29T15:34:08.459Z,28.27
2018-12-29T15:36:50.643Z,29.12
2018-12-29T15:39:32.160Z,27.62
2018-12-29T15:42:14.106Z,38.40
2018-12-29T15:44:55.427Z,47.70
2018-12-29T15:47:36.754Z,40.35
2018-12-29T15:50:17.529Z,33.98
2018-12-29T15:52:58.604Z,33.08
2018-12-29T15:55:40.383Z,29.50
2018-12-29T15:58:21.787Z,31.62
2018-12-29T16:01:03.155Z,35.43
2018-12-29T16:03:43.848Z,29.12
2018-12-29T16:06:24.816Z,32.85
2018-12-29T16:09:06.617Z,34.78
2018-12-29T16:11:48.245Z,43.15
2018-12-29T16:14:35.351Z,40.30
2018-12-29T16:17:12.862Z,29.75
2018-12-29T16:19:54.197Z,32.10
2018-12-29T16:22:36.234Z,33.08
2018-12-29T16:25:17.716Z,30.77
2018-12-29T16:27:59.034Z,32.45
2018-12-29T16:30:41.231Z,29.63
2018-12-29T16:33:23.088Z,30.65
2018-12-29T16:36:04.796Z,26.40
2018-12-29T16:38:46.297Z,28.95
2018-12-29T16:41:28.188Z,30.97
2018-12-29T16:44:09.601Z,29.35
2018-12-29T16:46:50.707Z,28.23
2018-12-29T16:55:45.786Z,27.93
2018-12-29T17:01:40.133Z,28.45
2018-12-29T17:04:21.998Z,28.60
2018-12-29T17:07:03.164Z,30.35
2018-12-29T17:09:44.855Z,30.57
2018-12-29T17:12:26.226Z,29.35
2018-12-29T17:15:07.266Z,29.92
2018-12-29T17:20:50.875Z,28.20
2018-12-29T17:23:33.204Z,30.57
2018-12-29T17:26:04.016Z,30.48
2018-12-29T17:28:54.807Z,28.47
2018-12-29T17:31:44.567Z,27.77
2018-12-29T17:34:34.287Z,27.62
2018-12-29T17:37:24.053Z,26.55
2018-12-29T17:40:14.291Z,26.10
2018-12-29T17:43:04.487Z,25.88
2018-12-29T17:45:53.772Z,27.13
2018-12-29T17:48:42.776Z,28.27
2018-12-29T17:51:24.697Z,27.13
2018-12-29T17:54:06.656Z,28.10
2018-12-29T17:56:36.639Z,27.73
2018-12-29T17:59:27.507Z,29.90
2018-12-29T18:02:16.371Z,27.80
2018-12-29T18:05:05.581Z,26.75
2018-12-29T18:07:54.249Z,36.03
2018-12-29T18:10:43.888Z,25.80
2018-12-29T18:13:33.636Z,28.65
2018-12-29T18:16:15.268Z,32.15
2018-12-29T18:18:56.251Z,31.33
2018-12-29T18:21:37.819Z,28.30
2018-12-29T18:24:19.325Z,29.42
2018-12-29T18:27:00.836Z,25.45
2018-12-29T18:29:42.637Z,27.50
2018-12-29T18:32:24.204Z,27.25
2018-12-29T18:35:05.689Z,27.60
2018-12-29T18:37:47.104Z,27.50
2018-12-29T18:40:28.659Z,25.92
2018-12-29T18:43:09.089Z,29.05
2018-12-29T18:45:39.214Z,29.72
2018-12-29T18:48:28.588Z,32.35
2018-12-29T18:51:17.552Z,36.48
2018-12-29T18:54:07.895Z,32.38
2018-12-29T18:56:56.720Z,32.05
2018-12-29T18:59:45.914Z,31.80
2018-12-29T19:02:16.104Z,33.90
2018-12-29T19:05:04.970Z,34.20
2018-12-29T19:07:54.399Z,29.42
2018-12-29T19:10:43.894Z,30.85
2018-12-29T19:13:33.711Z,32.05
2018-12-29T19:16:16.968Z,30.20
2018-12-29T19:18:58.200Z,31.65
2018-12-29T19:21:39.724Z,33.20
2018-12-29T19:27:04.640Z,37.20
2018-12-29T19:29:45.952Z,35.05
2018-12-29T19:32:28.973Z,35.90
2018-12-29T19:35:11.453Z,33.90
2018-12-29T19:37:52.736Z,31.75
2018-12-29T19:40:34.525Z,28.42
2018-12-29T19:43:15.949Z,29.42
2018-12-29T19:45:58.164Z,31.15
2018-12-29T19:48:40.326Z,29.82
2018-12-29T19:51:22.709Z,29.25
2018-12-29T19:54:03.713Z,28.50
2018-12-29T19:56:44.968Z,31.37
2018-12-29T19:59:25.979Z,29.15
2018-12-29T20:02:07.304Z,28.87
2018-12-29T20:04:49.166Z,29.67
2018-12-29T20:07:31.239Z,28.85
2018-12-29T20:10:13.172Z,30.15
2018-12-29T20:12:54.634Z,30.27
2018-12-29T20:15:35.545Z,28.10
2018-12-29T20:18:16.766Z,27.87
2018-12-29T20:20:57.702Z,27.90
2018-12-29T20:23:38.973Z,28.83
2018-12-29T20:26:20.704Z,29.18
2018-12-29T20:29:02.266Z,29.20
2018-12-29T20:31:44.364Z,25.50
2018-12-29T20:34:26.020Z,27.87
2018-12-29T20:37:07.583Z,27.13
2018-12-29T20:39:49.308Z,27.85
2018-12-29T20:42:30.353Z,27.42
2018-12-29T20:45:12.399Z,26.05
2018-12-29T20:47:54.121Z,26.80
2018-12-29T20:50:34.804Z,26.90
2018-12-29T20:53:15.650Z,26.57
2018-12-29T20:55:57.001Z,26.95
2018-12-29T20:58:38.260Z,24.90
2018-12-29T21:01:19.538Z,27.05
2018-12-29T21:04:00.709Z,28.30
2018-12-29T21:06:41.771Z,25.82
2018-12-29T21:09:23.360Z,28.55
2018-12-29T21:12:04.546Z,29.90
2018-12-29T21:14:45.943Z,29.87
2018-12-29T21:17:26.996Z,29.02
2018-12-29T21:20:09.059Z,29.42
2018-12-29T21:22:50.708Z,30.60
2018-12-29T21:25:32.627Z,29.25
2018-12-29T21:28:13.556Z,30.92
2018-12-29T21:30:56.060Z,30.43
2018-12-29T21:33:37.458Z,32.80
2018-12-29T21:36:18.965Z,30.97
2018-12-29T21:39:00.667Z,32.67
2018-12-29T21:41:42.369Z,33.28
2018-12-29T21:44:24.147Z,32.10
2018-12-29T21:47:05.788Z,33.05
2018-12-29T21:49:47.324Z,32.30
2018-12-29T21:52:28.651Z,31.45
2018-12-29T21:54:58.149Z,31.75
2018-12-29T21:57:49.160Z,32.00
2018-12-29T22:00:38.030Z,32.75
2018-12-29T22:03:29.066Z,32.70
2018-12-29T22:06:18.473Z,32.70
2018-12-29T22:09:09.079Z,32.88
2018-12-29T22:11:58.466Z,30.40
2018-12-29T22:14:47.569Z,32.30
2018-12-29T22:17:18.063Z,31.17
2018-12-29T22:19:48.164Z,33.67
2018-12-29T22:22:36.934Z,31.33
2018-12-29T22:25:25.435Z,32.73
2018-12-29T22:28:14.407Z,30.17
2018-12-29T22:30:55.844Z,30.72
2018-12-29T22:33:37.577Z,30.92
2018-12-29T22:39:02.785Z,29.18
2018-12-29T22:41:44.142Z,29.77
2018-12-29T22:44:25.108Z,30.30
2018-12-29T22:47:06.861Z,29.80
2018-12-29T22:49:48.596Z,29.30
2018-12-29T22:52:29.809Z,30.02
2018-12-29T22:55:10.902Z,30.00
2018-12-29T22:57:52.781Z,27.60
2018-12-29T23:00:52.752Z,28.55
2018-12-29T23:03:33.777Z,30.08
2018-12-29T23:06:15.046Z,29.85
2018-12-29T23:08:56.692Z,29.20
2018-12-29T23:11:37.859Z,28.38
2018-12-29T23:14:19.156Z,29.55
2018-12-29T23:16:49.186Z,27.32
2018-12-29T23:19:37.733Z,28.83
2018-12-29T23:22:26.527Z,26.42
2018-12-29T23:25:15.723Z,26.82
2018-12-29T23:28:04.672Z,25.60
2018-12-29T23:30:52.922Z,26.27
2018-12-29T23:33:41.921Z,28.83
2018-12-29T23:36:31.199Z,28.15
2018-12-29T23:39:20.736Z,27.40
2018-12-29T23:42:11.304Z,29.52
2018-12-29T23:44:53.291Z,27.35
2018-12-29T23:47:34.820Z,26.77
2018-12-29T23:50:16.793Z,28.23
2018-12-29T23:52:58.199Z,27.93
2018-12-29T23:55:39.650Z,27.13
2018-12-29T23:58:21.229Z,28.30
